createdAt,value
2019-03-12T00:00:52.014Z,3.31
2019-03-12T00:03:25.075Z,3.32
2019-03-12T00:05:56.685Z,3.34
2019-03-12T00:08:28.495Z,3.28
2019-03-12T00:11:00.869Z,3.23
2019-03-12T00:13:32.447Z,3.30
2019-03-12T00:16:04.046Z,3.41
2019-03-12T00:18:35.627Z,3.53
2019-03-12T00:21:07.163Z,3.63
2019-03-12T00:23:38.675Z,3.71
2019-03-12T00:26:10.272Z,3.73
2019-03-12T00:28:43.327Z,3.75
2019-03-12T00:31:14.842Z,3.80
2019-03-12T00:33:46.552Z,3.83
2019-03-12T00:36:18.079Z,3.80
2019-03-12T00:38:49.682Z,3.86
2019-03-12T00:41:21.209Z,3.97
2019-03-12T00:43:53.314Z,3.92
2019-03-12T00:46:27.070Z,3.94
2019-03-12T00:48:58.119Z,3.91
2019-03-12T00:51:29.799Z,3.91
2019-03-12T00:54:01.405Z,3.96
2019-03-12T00:56:32.931Z,3.93
2019-03-12T00:59:05.196Z,3.88
2019-03-12T01:01:36.779Z,3.91
2019-03-12T01:04:09.607Z,3.90
2019-03-12T01:06:41.257Z,3.93
2019-03-12T01:09:12.916Z,3.97
2019-03-12T01:11:44.587Z,4.04
2019-03-12T01:14:16.124Z,4.13
2019-03-12T01:16:48.118Z,4.17
2019-03-12T01:19:19.658Z,4.10
2019-03-12T01:21:51.365Z,4.10
2019-03-12T01:24:23.479Z,4.06
2019-03-12T01:26:56.640Z,4.00
2019-03-12T01:29:28.718Z,3.99
2019-03-12T01:32:00.723Z,4.02
2019-03-12T01:34:32.411Z,3.92
2019-03-12T01:37:04.097Z,3.90
2019-03-12T01:39:36.246Z,3.82
2019-03-12T01:42:07.787Z,3.74
2019-03-12T01:44:39.397Z,3.69
2019-03-12T01:47:11.009Z,3.70
2019-03-12T01:49:42.701Z,3.60
2019-03-12T01:52:14.311Z,3.61
2019-03-12T01:54:46.278Z,3.56
2019-03-12T01:57:17.842Z,3.55
2019-03-12T01:59:49.514Z,3.49
2019-03-12T02:02:21.103Z,3.49
2019-03-12T02:04:52.627Z,3.50
2019-03-12T02:07:24.452Z,3.52
2019-03-12T02:09:55.987Z,3.47
2019-03-12T02:12:27.496Z,3.42
2019-03-12T02:14:59.445Z,3.33
2019-03-12T02:17:31.126Z,3.30
2019-03-12T02:20:02.647Z,3.29
2019-03-12T02:22:35.363Z,3.15
2019-03-12T02:25:11.388Z,3.07
2019-03-12T02:27:42.916Z,2.99
2019-03-12T02:30:22.615Z,2.98
2019-03-12T02:32:54.290Z,2.97
2019-03-12T02:35:26.186Z,2.94
2019-03-12T02:37:57.776Z,2.98
2019-03-12T02:40:29.610Z,2.87
2019-03-12T02:43:01.211Z,2.83
2019-03-12T02:45:34.697Z,2.80
2019-03-12T02:48:07.391Z,2.80
2019-03-12T02:50:39.066Z,2.83
2019-03-12T02:53:10.580Z,2.74
2019-03-12T02:55:42.158Z,2.69
2019-03-12T02:58:13.670Z,2.69
2019-03-12T03:00:45.367Z,2.66
2019-03-12T03:03:18.751Z,2.55
2019-03-12T03:05:54.814Z,2.59
2019-03-12T03:08:27.992Z,2.58
2019-03-12T03:10:59.624Z,2.59
2019-03-12T03:13:31.630Z,2.50
2019-03-12T03:16:03.390Z,2.58
2019-03-12T03:18:35.060Z,2.61
2019-03-12T03:21:06.597Z,2.61
2019-03-12T03:23:38.111Z,2.60
2019-03-12T03:26:09.693Z,2.63
2019-03-12T03:28:41.316Z,2.58
2019-03-12T03:31:12.843Z,2.59
2019-03-12T03:33:44.346Z,2.49
2019-03-12T03:36:15.952Z,2.43
2019-03-12T03:38:47.581Z,2.43
2019-03-12T03:41:19.237Z,2.41
2019-03-12T03:43:50.779Z,2.47
2019-03-12T03:46:23.045Z,2.48
2019-03-12T03:48:54.749Z,2.47
2019-03-12T03:51:26.286Z,2.48
2019-03-12T03:53:57.814Z,2.50
2019-03-12T03:56:29.347Z,2.40
2019-03-12T03:59:00.900Z,2.36
2019-03-12T04:01:32.618Z,2.33
2019-03-12T04:04:05.296Z,2.30
2019-03-12T04:06:36.813Z,2.31
2019-03-12T04:09:08.502Z,2.35
2019-03-12T04:11:40.228Z,2.42
2019-03-12T04:14:12.329Z,2.48
2019-03-12T04:16:44.202Z,2.46
2019-03-12T04:19:16.172Z,2.47
2019-03-12T04:21:47.755Z,2.43
2019-03-12T04:24:19.276Z,2.47
2019-03-12T04:26:52.508Z,2.42
2019-03-12T04:29:24.030Z,2.43
2019-03-12T04:31:56.069Z,2.48
2019-03-12T04:34:28.085Z,2.47
2019-03-12T04:36:59.627Z,2.40
2019-03-12T04:39:32.605Z,2.41
2019-03-12T04:42:04.206Z,2.42
2019-03-12T04:44:36.101Z,2.43
2019-03-12T04:47:07.665Z,2.42
2019-03-12T04:49:39.547Z,2.38
2019-03-12T04:52:11.329Z,2.43
2019-03-12T04:54:42.856Z,2.32
2019-03-12T04:57:14.369Z,2.32
2019-03-12T04:59:45.899Z,2.29
2019-03-12T05:02:17.402Z,2.23
2019-03-12T05:04:49.545Z,2.23
2019-03-12T05:07:21.079Z,2.30
2019-03-12T05:09:52.593Z,2.31
2019-03-12T05:12:24.177Z,2.32
2019-03-12T05:14:55.728Z,2.30
2019-03-12T05:17:27.312Z,2.37
2019-03-12T05:19:58.910Z,2.38
2019-03-12T05:22:30.422Z,2.34
2019-03-12T05:25:02.967Z,2.40
2019-03-12T05:27:36.077Z,2.39
2019-03-12T05:30:20.851Z,2.49
2019-03-12T05:32:52.965Z,2.46
2019-03-12T05:35:24.928Z,2.52
2019-03-12T05:37:56.523Z,2.58
2019-03-12T05:40:28.121Z,2.57
2019-03-12T05:42:59.657Z,2.62
2019-03-12T05:45:31.172Z,2.64
2019-03-12T05:48:02.958Z,2.73
2019-03-12T05:50:34.462Z,2.73
2019-03-12T05:53:14.979Z,2.76
2019-03-12T05:55:46.738Z,2.82
2019-03-12T05:58:18.233Z,2.84
2019-03-12T06:00:49.828Z,2.89
2019-03-12T06:03:21.350Z,2.95
2019-03-12T06:05:53.284Z,2.97
2019-03-12T06:08:25.142Z,3.00
2019-03-12T06:10:56.671Z,3.04
2019-03-12T06:13:28.175Z,3.02
2019-03-12T06:15:59.881Z,2.94
2019-03-12T06:18:31.483Z,2.98
2019-03-12T06:21:03.007Z,2.74
2019-03-12T06:23:34.548Z,2.85
2019-03-12T06:26:06.080Z,2.99
2019-03-12T06:28:37.603Z,3.11
2019-03-12T06:31:16.952Z,3.13
2019-03-12T06:33:52.264Z,3.05
2019-03-12T06:36:25.486Z,3.17
2019-03-12T06:38:56.770Z,3.41
2019-03-12T06:41:31.075Z,3.52
2019-03-12T06:44:22.613Z,3.48
2019-03-12T06:47:12.211Z,3.44
2019-03-12T06:49:46.533Z,3.55
2019-03-12T06:52:20.915Z,3.61
2019-03-12T06:54:57.511Z,3.74
2019-03-12T06:57:31.804Z,3.69
2019-03-12T07:00:05.880Z,3.77
2019-03-12T07:02:37.351Z,3.82
2019-03-12T07:05:26.683Z,4.09
2019-03-12T07:08:14.929Z,4.08
2019-03-12T07:10:48.617Z,4.08
2019-03-12T07:13:38.150Z,4.11
2019-03-12T07:16:11.526Z,4.14
2019-03-12T07:18:44.697Z,4.08
2019-03-12T07:21:18.906Z,3.70
2019-03-12T07:24:08.457Z,3.76
2019-03-12T07:26:44.381Z,3.94
2019-03-12T07:29:35.046Z,4.08
2019-03-12T07:32:24.559Z,4.28
2019-03-12T07:35:06.838Z,4.18
2019-03-12T07:37:56.037Z,4.09
2019-03-12T07:40:38.089Z,4.04
2019-03-12T07:43:27.548Z,4.04
2019-03-12T07:46:00.967Z,4.06
2019-03-12T07:48:34.206Z,4.06
2019-03-12T07:51:07.413Z,4.14
2019-03-12T07:53:44.595Z,4.23
2019-03-12T07:56:25.022Z,4.21
2019-03-12T07:59:14.892Z,4.26
2019-03-12T08:01:48.115Z,4.38
2019-03-12T08:04:23.102Z,4.36
2019-03-12T08:06:56.242Z,4.48
2019-03-12T08:09:38.772Z,4.60
2019-03-12T08:12:14.967Z,4.64
2019-03-12T08:14:48.259Z,4.66
2019-03-12T08:17:25.488Z,4.76
2019-03-12T08:20:01.950Z,4.82
2019-03-12T08:22:33.286Z,4.80
2019-03-12T08:25:11.378Z,4.81
2019-03-12T08:27:53.799Z,4.89
2019-03-12T08:30:27.013Z,4.89
2019-03-12T08:33:04.233Z,4.68
2019-03-12T08:35:37.479Z,4.56
2019-03-12T08:38:13.806Z,4.66
2019-03-12T08:40:52.737Z,4.75
2019-03-12T08:43:25.164Z,4.54
2019-03-12T08:46:04.334Z,4.50
2019-03-12T08:48:54.081Z,4.59
2019-03-12T08:51:30.223Z,4.60
2019-03-12T08:54:05.846Z,4.59
2019-03-12T08:56:54.271Z,4.68
2019-03-12T08:59:27.654Z,4.68
2019-03-12T09:02:12.849Z,4.75
2019-03-12T09:04:44.577Z,4.79
2019-03-12T09:07:23.974Z,4.87
2019-03-12T09:10:21.691Z,4.97
2019-03-12T09:12:53.468Z,5.05
2019-03-12T09:15:29.431Z,5.12
2019-03-12T09:18:19.000Z,5.14
2019-03-12T09:21:10.466Z,5.12
2019-03-12T09:24:02.092Z,5.20
2019-03-12T09:26:35.238Z,5.19
2019-03-12T09:29:14.314Z,4.97
2019-03-12T09:32:08.176Z,4.99
2019-03-12T09:34:44.568Z,4.97
2019-03-12T09:37:30.040Z,5.12
2019-03-12T09:40:02.474Z,5.15
2019-03-12T09:42:54.076Z,5.28
2019-03-12T09:45:43.302Z,5.45
2019-03-12T09:48:23.331Z,5.46
2019-03-12T09:51:09.034Z,5.25
2019-03-12T09:53:46.612Z,5.19
2019-03-12T09:56:17.974Z,5.41
2019-03-12T09:59:03.529Z,5.73
2019-03-12T10:01:53.350Z,5.97
2019-03-12T10:04:32.241Z,6.13
2019-03-12T10:07:14.172Z,6.01
2019-03-12T10:09:47.544Z,6.07
2019-03-12T10:12:37.047Z,6.30
2019-03-12T10:15:12.221Z,6.36
2019-03-12T10:17:57.467Z,6.49
2019-03-12T10:20:43.018Z,6.68
2019-03-12T10:23:14.387Z,6.89
2019-03-12T10:25:53.713Z,7.03
2019-03-12T10:28:38.268Z,7.14
2019-03-12T10:31:21.652Z,7.00
2019-03-12T10:34:01.627Z,6.80
2019-03-12T10:36:35.103Z,7.03
2019-03-12T10:39:49.822Z,7.25
2019-03-12T10:42:33.580Z,7.63
2019-03-12T10:45:26.667Z,7.96
2019-03-12T10:48:05.135Z,7.89
2019-03-12T10:50:36.688Z,7.95
2019-03-12T10:53:08.358Z,7.51
2019-03-12T10:55:39.954Z,7.58
2019-03-12T10:58:11.492Z,7.80
2019-03-12T11:00:43.187Z,7.94
2019-03-12T11:03:14.945Z,8.06
2019-03-12T11:05:46.565Z,8.18
2019-03-12T11:08:18.296Z,8.14
2019-03-12T11:10:49.890Z,8.21
2019-03-12T11:13:21.422Z,8.33
2019-03-12T11:15:53.892Z,8.39
2019-03-12T11:18:25.420Z,8.33
2019-03-12T11:20:58.710Z,8.39
2019-03-12T11:23:30.346Z,8.47
2019-03-12T11:26:02.006Z,8.58
2019-03-12T11:28:33.616Z,8.51
2019-03-12T11:31:05.216Z,8.44
2019-03-12T11:33:36.810Z,8.56
2019-03-12T11:36:09.537Z,8.76
2019-03-12T11:38:42.819Z,8.80
2019-03-12T11:41:14.563Z,8.91
2019-03-12T11:43:46.250Z,8.98
2019-03-12T11:46:17.877Z,9.07
2019-03-12T11:48:49.598Z,9.18
2019-03-12T11:51:21.114Z,9.29
2019-03-12T11:53:53.128Z,9.04
2019-03-12T11:56:24.788Z,8.34
2019-03-12T11:58:56.406Z,8.28
2019-03-12T12:01:28.042Z,8.27
2019-03-12T12:03:59.691Z,8.31
2019-03-12T12:06:31.638Z,8.43
2019-03-12T12:09:03.310Z,8.39
2019-03-12T12:11:36.435Z,8.61
2019-03-12T12:14:07.967Z,8.81
2019-03-12T12:16:39.656Z,8.92
2019-03-12T12:19:11.247Z,8.87
2019-03-12T12:21:43.181Z,8.83
2019-03-12T12:24:14.966Z,8.93
2019-03-12T12:26:46.471Z,9.09
2019-03-12T12:29:18.219Z,9.07
2019-03-12T12:31:49.950Z,8.97
2019-03-12T12:34:22.067Z,8.95
2019-03-12T12:36:53.660Z,8.81
2019-03-12T12:39:25.187Z,8.58
2019-03-12T12:41:57.728Z,8.57
2019-03-12T12:44:29.705Z,8.68
2019-03-12T12:47:01.253Z,8.73
2019-03-12T12:49:32.984Z,8.74
2019-03-12T12:52:04.679Z,8.88
2019-03-12T12:54:37.164Z,8.96
2019-03-12T12:57:08.690Z,8.98
2019-03-12T12:59:40.384Z,8.96
2019-03-12T13:02:11.914Z,8.96
2019-03-12T13:04:43.983Z,8.89
2019-03-12T13:07:15.661Z,8.96
2019-03-12T13:09:47.545Z,8.95
2019-03-12T13:12:19.180Z,9.04
2019-03-12T13:14:50.771Z,8.99
2019-03-12T13:17:22.312Z,8.93
2019-03-12T13:19:53.935Z,8.78
2019-03-12T13:22:25.677Z,8.78
2019-03-12T13:24:57.242Z,8.77
2019-03-12T13:27:41.361Z,8.77
2019-03-12T13:30:02.093Z,8.82
2019-03-12T13:32:33.851Z,8.85
2019-03-12T13:35:18.642Z,9.03
2019-03-12T13:37:50.764Z,8.98
2019-03-12T13:40:26.779Z,8.89
2019-03-12T13:42:58.731Z,8.78
2019-03-12T13:45:33.690Z,8.72
2019-03-12T13:48:05.213Z,8.80
2019-03-12T13:50:36.711Z,8.91
2019-03-12T13:53:08.728Z,8.87
2019-03-12T13:55:40.321Z,8.83
2019-03-12T13:58:11.866Z,8.80
2019-03-12T14:00:43.602Z,8.74
2019-03-12T14:03:15.206Z,8.62
2019-03-12T14:05:46.891Z,8.59
2019-03-12T14:08:18.393Z,8.63
2019-03-12T14:10:49.995Z,8.78
2019-03-12T14:13:22.713Z,8.89
2019-03-12T14:15:54.361Z,8.82
2019-03-12T14:18:26.010Z,8.88
2019-03-12T14:21:02.808Z,8.81
2019-03-12T14:24:01.522Z,8.83
2019-03-12T14:26:33.248Z,8.72
2019-03-12T14:29:04.963Z,8.52
2019-03-12T14:31:36.554Z,8.50
2019-03-12T14:34:08.080Z,8.32
2019-03-12T14:36:39.614Z,8.35
2019-03-12T14:39:11.587Z,8.26
2019-03-12T14:41:44.711Z,8.34
2019-03-12T14:44:16.309Z,8.34
2019-03-12T14:46:48.054Z,8.40
2019-03-12T14:49:19.637Z,8.40
2019-03-12T14:52:04.948Z,8.43
2019-03-12T14:54:36.521Z,8.38
2019-03-12T14:57:08.054Z,8.46
2019-03-12T14:59:39.641Z,8.61
2019-03-12T15:02:11.159Z,8.62
2019-03-12T15:04:43.434Z,8.70
2019-03-12T15:07:14.963Z,8.73
2019-03-12T15:09:46.815Z,8.66
2019-03-12T15:12:18.486Z,8.59
2019-03-12T15:14:50.073Z,8.40
2019-03-12T15:17:23.323Z,8.38
2019-03-12T15:19:55.178Z,8.36
2019-03-12T15:22:28.326Z,8.36
2019-03-12T15:25:01.288Z,8.28
2019-03-12T15:27:33.309Z,8.30
2019-03-12T15:30:11.666Z,8.25
2019-03-12T15:32:43.287Z,8.19
2019-03-12T15:35:16.045Z,8.11
2019-03-12T15:37:47.904Z,8.12
2019-03-12T15:40:19.790Z,7.94
2019-03-12T15:42:55.739Z,7.90
2019-03-12T15:45:27.518Z,7.98
2019-03-12T15:47:59.103Z,7.96
2019-03-12T15:50:30.722Z,8.04
2019-03-12T15:53:02.426Z,8.01
2019-03-12T15:55:34.038Z,8.01
2019-03-12T15:58:05.621Z,8.10
2019-03-12T16:00:37.146Z,8.11
2019-03-12T16:03:08.703Z,8.08
2019-03-12T16:05:40.656Z,7.99
2019-03-12T16:08:12.357Z,7.94
2019-03-12T16:10:57.485Z,7.92
2019-03-12T16:13:19.106Z,7.84
2019-03-12T16:15:50.734Z,7.73
2019-03-12T16:18:22.254Z,7.75
2019-03-12T16:20:53.934Z,7.68
2019-03-12T16:23:25.513Z,7.65
2019-03-12T16:25:57.321Z,7.61
2019-03-12T16:28:29.016Z,7.61
2019-03-12T16:31:00.615Z,7.55
2019-03-12T16:33:32.341Z,7.53
2019-03-12T16:36:05.557Z,7.47
2019-03-12T16:38:38.069Z,7.40
2019-03-12T16:41:09.678Z,7.22
2019-03-12T16:43:41.505Z,7.16
2019-03-12T16:46:15.721Z,7.17
2019-03-12T16:48:48.873Z,7.19
2019-03-12T16:51:20.851Z,7.07
2019-03-12T16:53:52.459Z,7.07
2019-03-12T16:56:24.115Z,7.05
2019-03-12T16:58:55.616Z,7.10
2019-03-12T17:01:27.282Z,7.08
2019-03-12T17:03:59.914Z,7.09
2019-03-12T17:06:31.570Z,7.06
2019-03-12T17:09:04.778Z,7.08
2019-03-12T17:11:37.895Z,7.13
2019-03-12T17:14:14.174Z,7.09
2019-03-12T17:16:50.155Z,7.11
2019-03-12T17:19:22.762Z,7.09
2019-03-12T17:22:03.904Z,7.11
2019-03-12T17:24:37.039Z,7.13
2019-03-12T17:27:11.838Z,7.09
2019-03-12T17:29:43.559Z,7.04
2019-03-12T17:32:15.210Z,7.03
2019-03-12T17:34:46.910Z,6.98
2019-03-12T17:37:20.076Z,6.99
2019-03-12T17:39:51.744Z,6.92
2019-03-12T17:42:23.345Z,6.95
2019-03-12T17:44:54.953Z,6.94
2019-03-12T17:47:26.459Z,6.94
2019-03-12T17:49:59.066Z,6.91
2019-03-12T17:52:30.731Z,6.86
2019-03-12T17:55:02.339Z,6.88
2019-03-12T17:57:34.004Z,6.86
2019-03-12T18:00:32.695Z,6.83
2019-03-12T18:03:04.290Z,6.77
2019-03-12T18:05:35.885Z,6.72
2019-03-12T18:08:07.774Z,6.78
2019-03-12T18:10:40.475Z,6.77
2019-03-12T18:13:12.500Z,6.71
2019-03-12T18:15:44.247Z,6.65
2019-03-12T18:18:15.777Z,6.59
2019-03-12T18:20:47.299Z,6.53
2019-03-12T18:23:19.117Z,6.50
2019-03-12T18:25:52.132Z,6.47
2019-03-12T18:28:23.863Z,6.34
2019-03-12T18:30:55.542Z,6.29
2019-03-12T18:33:27.048Z,6.32
2019-03-12T18:35:58.661Z,6.27
2019-03-12T18:38:30.183Z,6.27
2019-03-12T18:41:01.757Z,6.23
2019-03-12T18:43:33.285Z,6.21
2019-03-12T18:46:05.469Z,6.21
2019-03-12T18:48:37.000Z,6.19
2019-03-12T18:51:08.536Z,6.11
2019-03-12T18:53:40.083Z,6.10
2019-03-12T18:56:11.582Z,6.12
2019-03-12T18:58:43.158Z,6.17
2019-03-12T19:01:15.441Z,6.13
2019-03-12T19:03:47.059Z,6.13
2019-03-12T19:06:19.408Z,6.15
2019-03-12T19:08:53.321Z,6.14
2019-03-12T19:11:24.965Z,6.17
2019-03-12T19:13:56.749Z,6.18
2019-03-12T19:16:28.254Z,6.14
2019-03-12T19:19:00.017Z,6.12
2019-03-12T19:21:31.691Z,6.13
2019-03-12T19:24:03.921Z,6.11
2019-03-12T19:26:35.592Z,6.13
2019-03-12T19:29:07.128Z,6.14
2019-03-12T19:31:49.429Z,6.11
2019-03-12T19:34:23.017Z,6.10
2019-03-12T19:36:54.650Z,6.09
2019-03-12T19:39:26.231Z,6.11
2019-03-12T19:41:57.888Z,6.15
2019-03-12T19:44:29.387Z,6.15
2019-03-12T19:47:04.222Z,6.12
2019-03-12T19:49:34.318Z,6.07
2019-03-12T19:52:10.720Z,6.14
2019-03-12T19:54:44.122Z,6.13
2019-03-12T19:57:15.668Z,6.18
2019-03-12T19:59:47.797Z,6.17
2019-03-12T20:02:20.138Z,6.08
2019-03-12T20:04:51.752Z,6.17
2019-03-12T20:07:23.277Z,6.19
2019-03-12T20:09:58.365Z,6.14
2019-03-12T20:13:17.650Z,6.17
2019-03-12T20:16:16.554Z,6.20
2019-03-12T20:19:15.845Z,6.19
2019-03-12T20:22:24.339Z,6.16
2019-03-12T20:25:40.040Z,6.19
2019-03-12T20:28:50.870Z,6.21
2019-03-12T20:31:51.530Z,6.16
2019-03-12T20:34:52.626Z,6.30
2019-03-12T20:38:09.531Z,6.25
2019-03-12T20:41:17.757Z,6.32
2019-03-12T20:44:17.986Z,6.32
2019-03-12T20:47:06.424Z,6.40
2019-03-12T20:50:29.361Z,6.42
2019-03-12T20:53:39.118Z,6.43
2019-03-12T20:56:41.492Z,6.36
2019-03-12T21:00:09.571Z,6.38
2019-03-12T21:03:35.456Z,6.28
2019-03-12T21:06:46.772Z,6.09
2019-03-12T21:09:47.819Z,6.00
2019-03-12T21:12:44.851Z,5.99
2019-03-12T21:15:48.630Z,5.99
2019-03-12T21:18:58.242Z,5.88
2019-03-12T21:22:22.493Z,5.89
2019-03-12T21:25:21.362Z,6.02
2019-03-12T21:28:31.182Z,6.04
2019-03-12T21:31:02.792Z,6.08
2019-03-12T21:33:34.479Z,5.84
2019-03-12T21:36:08.191Z,5.90
2019-03-12T21:38:39.250Z,5.89
2019-03-12T21:41:10.831Z,5.92
2019-03-12T21:43:42.397Z,5.99
2019-03-12T21:46:14.133Z,6.05
2019-03-12T21:48:46.852Z,6.00
2019-03-12T21:51:18.379Z,6.04
2019-03-12T21:53:50.033Z,6.01
2019-03-12T21:56:21.544Z,5.97
2019-03-12T21:58:53.200Z,5.92
2019-03-12T22:01:24.710Z,5.91
2019-03-12T22:03:56.676Z,5.92
2019-03-12T22:06:28.298Z,5.98
2019-03-12T22:08:59.905Z,6.03
2019-03-12T22:11:31.584Z,6.01
2019-03-12T22:14:03.109Z,6.01
2019-03-12T22:16:37.685Z,6.04
2019-03-12T22:19:09.297Z,6.02
2019-03-12T22:21:42.661Z,6.07
2019-03-12T22:24:16.014Z,6.02
2019-03-12T22:26:47.591Z,5.96
2019-03-12T22:29:19.126Z,5.96
2019-03-12T22:31:50.821Z,5.96
2019-03-12T22:34:22.517Z,6.00
2019-03-12T22:36:54.213Z,5.98
2019-03-12T22:39:25.753Z,6.05
2019-03-12T22:41:57.267Z,6.02
2019-03-12T22:44:28.792Z,5.86
2019-03-12T22:47:00.317Z,5.95
2019-03-12T22:49:31.946Z,6.07
2019-03-12T22:52:03.472Z,6.04
2019-03-12T22:54:34.975Z,6.07
2019-03-12T22:57:07.255Z,6.09
2019-03-12T22:59:56.861Z,6.05
2019-03-12T23:02:46.765Z,5.98
2019-03-12T23:05:37.646Z,6.05
2019-03-12T23:08:27.783Z,6.07
2019-03-12T23:11:02.474Z,6.08
2019-03-12T23:13:35.795Z,6.09
2019-03-12T23:16:09.631Z,6.09
2019-03-12T23:18:47.342Z,6.09
2019-03-12T23:21:18.946Z,6.10
2019-03-12T23:23:50.745Z,6.10
2019-03-12T23:26:22.641Z,6.16
2019-03-12T23:28:54.449Z,6.07
2019-03-12T23:34:03.207Z,6.18
2019-03-12T23:36:34.790Z,6.12
2019-03-12T23:39:07.741Z,6.14
2019-03-12T23:41:42.607Z,6.19
2019-03-12T23:44:15.646Z,6.06
2019-03-12T23:46:47.195Z,6.17
2019-03-12T23:49:19.165Z,6.14
2019-03-12T23:51:50.905Z,6.09
2019-03-12T23:54:22.570Z,6.15
2019-03-12T23:56:54.238Z,6.15
2019-03-12T23:59:26.047Z,6.12
